sensor_id;sensor_type;location;lat;lon;timestamp;P1;durP1;ratioP1;P2;durP2;ratioP2
16063;SDS011;8136;53.172;8.256;2024-02-28T08:13:51;37.13;;;17.70;;
16063;SDS011;8136;53.172;8.256;2024-02-28T08:16:20;34.87;;;16.20;;
16063;SDS011;8136;53.172;8.256;2024-02-28T08:18:57;34.10;;;15.37;;
16063;SDS011;8136;53.172;8.256;2024-02-28T08:21:50;42.17;;;16.90;;
16063;SDS011;8136;53.172;8.256;2024-02-28T08:32:04;37.83;;;16.83;;
16063;SDS011;8136;53.172;8.256;2024-02-28T08:34:34;33.77;;;14.80;;
16063;SDS011;8136;53.172;8.256;2024-02-28T08:37:01;31.03;;;15.97;;
16063;SDS011;8136;53.172;8.256;2024-02-28T08:39:28;36.10;;;17.13;;
16063;SDS011;8136;53.172;8.256;2024-02-28T08:41:58;41.50;;;17.40;;
16063;SDS011;8136;53.172;8.256;2024-02-28T08:44:25;35.20;;;16.10;;
16063;SDS011;8136;53.172;8.256;2024-02-28T08:46:52;39.83;;;16.80;;
16063;SDS011;8136;53.172;8.256;2024-02-28T08:49:20;34.67;;;16.57;;
16063;SDS011;8136;53.172;8.256;2024-02-28T08:51:50;35.63;;;16.87;;
16063;SDS011;8136;53.172;8.256;2024-02-28T08:54:17;32.93;;;15.07;;
16063;SDS011;8136;53.172;8.256;2024-02-28T08:56:46;29.33;;;15.33;;
16063;SDS011;8136;53.172;8.256;2024-02-28T08:59:13;34.57;;;17.37;;
16063;SDS011;8136;53.172;8.256;2024-02-28T09:01:48;35.37;;;16.30;;
16063;SDS011;8136;53.172;8.256;2024-02-28T09:04:21;37.57;;;16.40;;
16063;SDS011;8136;53.172;8.256;2024-02-28T09:06:52;37.20;;;15.07;;
16063;SDS011;8136;53.172;8.256;2024-02-28T09:09:21;37.10;;;16.53;;
16063;SDS011;8136;53.172;8.256;2024-02-28T09:11:48;33.00;;;15.47;;
16063;SDS011;8136;53.172;8.256;2024-02-28T09:14:15;35.37;;;15.47;;
16063;SDS011;8136;53.172;8.256;2024-02-28T09:16:42;30.50;;;16.87;;
16063;SDS011;8136;53.172;8.256;2024-02-28T09:19:09;34.00;;;16.57;;
16063;SDS011;8136;53.172;8.256;2024-02-28T09:21:37;35.13;;;16.73;;
16063;SDS011;8136;53.172;8.256;2024-02-28T09:24:04;32.57;;;15.43;;
16063;SDS011;8136;53.172;8.256;2024-02-28T09:26:32;33.03;;;16.30;;
16063;SDS011;8136;53.172;8.256;2024-02-28T09:28:59;33.37;;;16.03;;
16063;SDS011;8136;53.172;8.256;2024-02-28T09:35:35;30.40;;;16.17;;
16063;SDS011;8136;53.172;8.256;2024-02-28T09:38:10;35.93;;;15.33;;
16063;SDS011;8136;53.172;8.256;2024-02-28T09:40:45;30.43;;;14.63;;
16063;SDS011;8136;53.172;8.256;2024-02-28T09:43:15;30.40;;;15.27;;
16063;SDS011;8136;53.172;8.256;2024-02-28T09:45:57;31.60;;;14.83;;
16063;SDS011;8136;53.172;8.256;2024-02-28T09:48:27;34.20;;;16.03;;
16063;SDS011;8136;53.172;8.256;2024-02-28T09:50:55;30.77;;;15.80;;
16063;SDS011;8136;53.172;8.256;2024-02-28T09:53:31;27.60;;;15.60;;
16063;SDS011;8136;53.172;8.256;2024-02-28T09:55:58;32.80;;;16.47;;
16063;SDS011;8136;53.172;8.256;2024-02-28T09:58:27;31.00;;;16.03;;
16063;SDS011;8136;53.172;8.256;2024-02-28T10:00:57;33.27;;;15.50;;
16063;SDS011;8136;53.172;8.256;2024-02-28T10:03:31;41.43;;;16.20;;
16063;SDS011;8136;53.172;8.256;2024-02-28T10:06:02;30.30;;;15.90;;
16063;SDS011;8136;53.172;8.256;2024-02-28T10:08:38;24.60;;;14.43;;
16063;SDS011;8136;53.172;8.256;2024-02-28T10:47:19;29.30;;;14.77;;
16063;SDS011;8136;53.172;8.256;2024-02-28T10:49:46;29.53;;;15.70;;
16063;SDS011;8136;53.172;8.256;2024-02-28T10:52:16;32.57;;;15.90;;
16063;SDS011;8136;53.172;8.256;2024-02-28T10:54:47;34.77;;;15.97;;
16063;SDS011;8136;53.172;8.256;2024-02-28T10:57:20;35.23;;;14.63;;
16063;SDS011;8136;53.172;8.256;2024-02-28T10:59:50;39.63;;;16.40;;
16063;SDS011;8136;53.172;8.256;2024-02-28T11:02:19;33.90;;;14.77;;
16063;SDS011;8136;53.172;8.256;2024-02-28T11:04:48;32.87;;;14.70;;
16063;SDS011;8136;53.172;8.256;2024-02-28T11:07:19;29.07;;;14.83;;
16063;SDS011;8136;53.172;8.256;2024-02-28T11:09:46;30.77;;;13.73;;
16063;SDS011;8136;53.172;8.256;2024-02-28T11:12:23;35.87;;;14.80;;
16063;SDS011;8136;53.172;8.256;2024-02-28T11:14:56;31.20;;;15.57;;
16063;SDS011;8136;53.172;8.256;2024-02-28T11:17:32;33.90;;;14.67;;
16063;SDS011;8136;53.172;8.256;2024-02-28T11:20:11;38.13;;;16.20;;
16063;SDS011;8136;53.172;8.256;2024-02-28T11:22:43;33.40;;;16.00;;
16063;SDS011;8136;53.172;8.256;2024-02-28T11:25:12;34.13;;;14.63;;
16063;SDS011;8136;53.172;8.256;2024-02-28T11:27:46;30.40;;;14.57;;
16063;SDS011;8136;53.172;8.256;2024-02-28T11:30:13;36.37;;;14.90;;
16063;SDS011;8136;53.172;8.256;2024-02-28T11:32:48;33.43;;;15.33;;
16063;SDS011;8136;53.172;8.256;2024-02-28T11:45:54;29.33;;;14.23;;
16063;SDS011;8136;53.172;8.256;2024-02-28T11:56:11;29.03;;;14.33;;
16063;SDS011;8136;53.172;8.256;2024-02-28T12:01:41;27.23;;;13.77;;
16063;SDS011;8136;53.172;8.256;2024-02-28T12:04:11;35.87;;;16.03;;
16063;SDS011;8136;53.172;8.256;2024-02-28T12:06:40;28.50;;;14.07;;
16063;SDS011;8136;53.172;8.256;2024-02-28T12:09:08;34.27;;;15.17;;
16063;SDS011;8136;53.172;8.256;2024-02-28T12:11:41;28.77;;;14.90;;
16063;SDS011;8136;53.172;8.256;2024-02-28T12:14:08;28.33;;;13.57;;
16063;SDS011;8136;53.172;8.256;2024-02-28T12:16:43;29.70;;;14.33;;
16063;SDS011;8136;53.172;8.256;2024-02-28T12:19:12;28.77;;;14.70;;
16063;SDS011;8136;53.172;8.256;2024-02-28T12:21:47;24.40;;;13.23;;
16063;SDS011;8136;53.172;8.256;2024-02-28T12:24:26;33.13;;;14.33;;
16063;SDS011;8136;53.172;8.256;2024-02-28T12:26:57;27.97;;;15.17;;
16063;SDS011;8136;53.172;8.256;2024-02-28T12:29:29;32.47;;;15.80;;
16063;SDS011;8136;53.172;8.256;2024-02-28T12:32:03;29.73;;;14.00;;
16063;SDS011;8136;53.172;8.256;2024-02-28T12:34:37;30.73;;;15.10;;
16063;SDS011;8136;53.172;8.256;2024-02-28T12:37:04;29.50;;;16.83;;
16063;SDS011;8136;53.172;8.256;2024-02-28T12:39:36;27.03;;;14.70;;
16063;SDS011;8136;53.172;8.256;2024-02-28T12:42:19;27.53;;;13.90;;
16063;SDS011;8136;53.172;8.256;2024-02-28T17:44:16;42.73;;;20.63;;
16063;SDS011;8136;53.172;8.256;2024-02-28T17:46:45;43.67;;;18.67;;
16063;SDS011;8136;53.172;8.256;2024-02-28T17:49:19;38.97;;;20.83;;
16063;SDS011;8136;53.172;8.256;2024-02-28T17:51:49;46.37;;;22.07;;
16063;SDS011;8136;53.172;8.256;2024-02-28T17:54:16;42.80;;;21.07;;
16063;SDS011;8136;53.172;8.256;2024-02-28T17:56:46;42.00;;;21.83;;
16063;SDS011;8136;53.172;8.256;2024-02-28T17:59:15;44.20;;;20.83;;
16063;SDS011;8136;53.172;8.256;2024-02-28T18:01:47;48.30;;;21.30;;
16063;SDS011;8136;53.172;8.256;2024-02-28T18:04:18;49.30;;;22.53;;
16063;SDS011;8136;53.172;8.256;2024-02-28T18:06:45;48.40;;;21.97;;
16063;SDS011;8136;53.172;8.256;2024-02-28T18:09:12;42.53;;;20.20;;
16063;SDS011;8136;53.172;8.256;2024-02-28T18:11:43;44.33;;;21.53;;
16063;SDS011;8136;53.172;8.256;2024-02-28T18:14:11;41.43;;;20.77;;
16063;SDS011;8136;53.172;8.256;2024-02-28T18:16:38;47.43;;;21.33;;
16063;SDS011;8136;53.172;8.256;2024-02-28T18:19:13;45.07;;;22.23;;
16063;SDS011;8136;53.172;8.256;2024-02-28T18:21:45;43.27;;;21.97;;
16063;SDS011;8136;53.172;8.256;2024-02-28T18:24:16;40.90;;;20.47;;
16063;SDS011;8136;53.172;8.256;2024-02-28T18:26:44;42.30;;;21.90;;
16063;SDS011;8136;53.172;8.256;2024-02-28T18:29:19;48.40;;;21.30;;
16063;SDS011;8136;53.172;8.256;2024-02-28T18:31:46;50.17;;;21.23;;
16063;SDS011;8136;53.172;8.256;2024-02-28T18:34:16;44.03;;;21.03;;
16063;SDS011;8136;53.172;8.256;2024-02-28T18:36:45;45.80;;;21.50;;
16063;SDS011;8136;53.172;8.256;2024-02-28T18:39:14;52.57;;;22.53;;
16063;SDS011;8136;53.172;8.256;2024-02-28T18:55:26;43.27;;;19.87;;
16063;SDS011;8136;53.172;8.256;2024-02-28T19:01:12;37.17;;;19.20;;
16063;SDS011;8136;53.172;8.256;2024-02-28T19:03:39;36.80;;;20.00;;
16063;SDS011;8136;53.172;8.256;2024-02-28T19:06:19;37.87;;;19.97;;
16063;SDS011;8136;53.172;8.256;2024-02-28T19:08:52;41.13;;;20.60;;
16063;SDS011;8136;53.172;8.256;2024-02-28T19:11:22;39.97;;;20.63;;
16063;SDS011;8136;53.172;8.256;2024-02-28T19:13:51;42.17;;;20.37;;
16063;SDS011;8136;53.172;8.256;2024-02-28T19:16:19;43.10;;;20.43;;
16063;SDS011;8136;53.172;8.256;2024-02-28T19:18:47;45.47;;;20.83;;
16063;SDS011;8136;53.172;8.256;2024-02-28T19:21:14;41.33;;;21.00;;
16063;SDS011;8136;53.172;8.256;2024-02-28T19:23:41;43.13;;;20.33;;
16063;SDS011;8136;53.172;8.256;2024-02-28T19:26:10;43.27;;;20.57;;
16063;SDS011;8136;53.172;8.256;2024-02-28T19:28:39;36.77;;;20.23;;
16063;SDS011;8136;53.172;8.256;2024-02-28T19:31:15;42.13;;;20.63;;
16063;SDS011;8136;53.172;8.256;2024-02-28T19:33:42;43.20;;;21.33;;
16063;SDS011;8136;53.172;8.256;2024-02-28T19:36:09;42.57;;;21.43;;
16063;SDS011;8136;53.172;8.256;2024-02-28T19:38:36;42.43;;;21.70;;
16063;SDS011;8136;53.172;8.256;2024-02-28T19:41:04;47.47;;;21.80;;
16063;SDS011;8136;53.172;8.256;2024-02-28T19:43:34;44.27;;;21.67;;
16063;SDS011;8136;53.172;8.256;2024-02-28T19:46:05;48.63;;;22.17;;
16063;SDS011;8136;53.172;8.256;2024-02-28T19:48:38;49.90;;;21.77;;
16063;SDS011;8136;53.172;8.256;2024-02-28T19:51:15;50.10;;;23.57;;
16063;SDS011;8136;53.172;8.256;2024-02-28T19:53:45;48.50;;;22.47;;
16063;SDS011;8136;53.172;8.256;2024-02-28T19:56:19;54.37;;;24.13;;
16063;SDS011;8136;53.172;8.256;2024-02-28T19:59:10;50.60;;;24.23;;
